sensor_id;sensor_type;location;lat;lon;timestamp;pressure;altitude;pressure_sealevel;temperature;humidity
56944;BME280;42848;42.524;12.052;2022-07-23T00:01:23;96950.50;;;27.16;100.00
56944;BME280;42848;42.524;12.052;2022-07-23T00:03:49;96945.16;;;26.48;98.33
56944;BME280;42848;42.524;12.052;2022-07-23T00:06:15;96951.69;;;26.88;94.70
56944;BME280;42848;42.524;12.052;2022-07-23T00:08:41;96952.66;;;27.05;100.00
56944;BME280;42848;42.524;12.052;2022-07-23T00:11:07;96948.19;;;27.11;100.00
56944;BME280;42848;42.524;12.052;2022-07-23T00:13:33;96937.50;;;26.79;100.00
56944;BME280;42848;42.524;12.052;2022-07-23T00:15:59;96942.56;;;26.87;97.98
56944;BME280;42848;42.524;12.052;2022-07-23T00:18:25;96943.19;;;26.99;95.77
56944;BME280;42848;42.524;12.052;2022-07-23T00:20:51;96941.22;;;26.96;93.99
56944;BME280;42848;42.524;12.052;2022-07-23T00:23:17;96944.34;;;27.01;96.08
56944;BME280;42848;42.524;12.052;2022-07-23T00:25:42;96933.03;;;27.12;97.94
56944;BME280;42848;42.524;12.052;2022-07-23T00:28:10;96943.22;;;26.95;99.43
56944;BME280;42848;42.524;12.052;2022-07-23T00:30:36;96935.41;;;26.86;98.48
56944;BME280;42848;42.524;12.052;2022-07-23T00:33:05;96942.44;;;26.94;96.76
56944;BME280;42848;42.524;12.052;2022-07-23T00:35:33;96940.47;;;26.68;98.83
56944;BME280;42848;42.524;12.052;2022-07-23T00:37:59;96939.75;;;26.64;100.00
56944;BME280;42848;42.524;12.052;2022-07-23T00:40:26;96939.41;;;26.85;98.12
56944;BME280;42848;42.524;12.052;2022-07-23T00:42:52;96927.41;;;26.65;100.00
56944;BME280;42848;42.524;12.052;2022-07-23T00:45:18;96932.59;;;26.63;100.00
56944;BME280;42848;42.524;12.052;2022-07-23T00:47:44;96926.03;;;26.50;100.00
56944;BME280;42848;42.524;12.052;2022-07-23T00:50:11;96927.31;;;26.42;100.00
56944;BME280;42848;42.524;12.052;2022-07-23T00:52:38;96924.59;;;26.65;100.00
56944;BME280;42848;42.524;12.052;2022-07-23T00:55:05;96929.31;;;26.68;100.00
56944;BME280;42848;42.524;12.052;2022-07-23T00:57:31;96921.03;;;26.64;100.00
56944;BME280;42848;42.524;12.052;2022-07-23T00:59:57;96917.31;;;26.48;100.00
56944;BME280;42848;42.524;12.052;2022-07-23T01:02:26;96916.38;;;26.27;100.00
56944;BME280;42848;42.524;12.052;2022-07-23T01:04:53;96914.47;;;26.51;100.00
56944;BME280;42848;42.524;12.052;2022-07-23T01:07:19;96902.75;;;26.63;100.00
56944;BME280;42848;42.524;12.052;2022-07-23T01:09:46;96909.44;;;26.43;100.00
56944;BME280;42848;42.524;12.052;2022-07-23T01:12:12;96910.91;;;26.20;100.00
56944;BME280;42848;42.524;12.052;2022-07-23T01:14:38;96916.38;;;26.27;100.00
56944;BME280;42848;42.524;12.052;2022-07-23T01:17:04;96912.22;;;26.43;100.00
56944;BME280;42848;42.524;12.052;2022-07-23T01:19:30;96915.47;;;26.38;100.00
56944;BME280;42848;42.524;12.052;2022-07-23T01:21:58;96911.66;;;26.24;100.00
56944;BME280;42848;42.524;12.052;2022-07-23T01:24:24;96915.72;;;26.47;100.00
56944;BME280;42848;42.524;12.052;2022-07-23T01:26:50;96907.13;;;26.64;100.00
56944;BME280;42848;42.524;12.052;2022-07-23T01:29:16;96908.84;;;26.55;100.00
56944;BME280;42848;42.524;12.052;2022-07-23T01:31:43;96906.75;;;26.32;100.00
56944;BME280;42848;42.524;12.052;2022-07-23T01:34:09;96904.59;;;26.16;100.00
56944;BME280;42848;42.524;12.052;2022-07-23T01:36:35;96901.31;;;26.25;100.00
56944;BME280;42848;42.524;12.052;2022-07-23T01:39:03;96904.78;;;26.02;100.00
56944;BME280;42848;42.524;12.052;2022-07-23T01:41:29;96899.34;;;25.91;100.00
56944;BME280;42848;42.524;12.052;2022-07-23T01:43:55;96907.13;;;26.03;100.00
56944;BME280;42848;42.524;12.052;2022-07-23T01:46:21;96900.34;;;26.08;100.00
56944;BME280;42848;42.524;12.052;2022-07-23T01:48:48;96900.88;;;25.96;100.00
56944;BME280;42848;42.524;12.052;2022-07-23T01:51:14;96897.41;;;25.88;100.00
56944;BME280;42848;42.524;12.052;2022-07-23T01:53:40;96897.09;;;25.83;100.00
56944;BME280;42848;42.524;12.052;2022-07-23T01:56:06;96890.72;;;25.82;100.00
56944;BME280;42848;42.524;12.052;2022-07-23T01:58:31;96898.09;;;25.96;100.00
56944;BME280;42848;42.524;12.052;2022-07-23T02:00:58;96890.41;;;26.07;100.00
56944;BME280;42848;42.524;12.052;2022-07-23T02:03:25;96881.31;;;26.03;100.00
56944;BME280;42848;42.524;12.052;2022-07-23T02:05:51;96886.69;;;25.87;100.00
56944;BME280;42848;42.524;12.052;2022-07-23T02:08:17;96891.81;;;25.92;100.00
56944;BME280;42848;42.524;12.052;2022-07-23T02:10:43;96883.53;;;25.85;100.00
56944;BME280;42848;42.524;12.052;2022-07-23T02:13:09;96891.44;;;25.90;100.00
56944;BME280;42848;42.524;12.052;2022-07-23T02:15:35;96883.41;;;25.95;100.00
56944;BME280;42848;42.524;12.052;2022-07-23T02:18:00;96888.25;;;25.88;100.00
56944;BME280;42848;42.524;12.052;2022-07-23T02:20:26;96886.69;;;25.87;100.00
56944;BME280;42848;42.524;12.052;2022-07-23T02:22:52;96880.16;;;25.66;100.00
56944;BME280;42848;42.524;12.052;2022-07-23T02:25:18;96893.16;;;25.76;100.00
56944;BME280;42848;42.524;12.052;2022-07-23T02:27:43;96888.06;;;25.68;100.00
56944;BME280;42848;42.524;12.052;2022-07-23T02:30:09;96892.84;;;25.33;100.00
56944;BME280;42848;42.524;12.052;2022-07-23T02:32:35;96891.66;;;25.68;100.00
56944;BME280;42848;42.524;12.052;2022-07-23T02:35:03;96889.84;;;25.55;100.00
56944;BME280;42848;42.524;12.052;2022-07-23T02:37:29;96886.38;;;25.43;100.00
56944;BME280;42848;42.524;12.052;2022-07-23T02:39:54;96882.41;;;25.44;100.00
56944;BME280;42848;42.524;12.052;2022-07-23T02:42:20;96887.97;;;25.41;100.00
56944;BME280;42848;42.524;12.052;2022-07-23T02:44:46;96889.66;;;25.35;100.00
56944;BME280;42848;42.524;12.052;2022-07-23T02:47:12;96884.84;;;25.39;100.00
56944;BME280;42848;42.524;12.052;2022-07-23T02:49:38;96884.53;;;25.30;100.00
56944;BME280;42848;42.524;12.052;2022-07-23T02:52:04;96887.06;;;25.13;100.00
56944;BME280;42848;42.524;12.052;2022-07-23T02:54:29;96886.16;;;25.23;100.00
56944;BME280;42848;42.524;12.052;2022-07-23T02:56:55;96887.84;;;25.17;100.00
56944;BME280;42848;42.524;12.052;2022-07-23T02:59:21;96885.00;;;25.24;100.00
56944;BME280;42848;42.524;12.052;2022-07-23T03:01:47;96885.63;;;25.39;100.00
56944;BME280;42848;42.524;12.052;2022-07-23T03:04:12;96887.97;;;25.41;100.00
56944;BME280;42848;42.524;12.052;2022-07-23T03:06:38;96885.19;;;25.00;100.00
56944;BME280;42848;42.524;12.052;2022-07-23T03:09:05;96890.03;;;24.92;100.00
56944;BME280;42848;42.524;12.052;2022-07-23T03:11:31;96885.81;;;25.21;100.00
56944;BME280;42848;42.524;12.052;2022-07-23T03:13:57;96881.00;;;25.26;100.00
56944;BME280;42848;42.524;12.052;2022-07-23T03:16:23;96887.53;;;25.08;100.00
56944;BME280;42848;42.524;12.052;2022-07-23T03:18:49;96886.47;;;25.33;100.00
56944;BME280;42848;42.524;12.052;2022-07-23T03:21:14;96874.00;;;25.10;100.00
56944;BME280;42848;42.524;12.052;2022-07-23T03:23:40;96884.59;;;25.22;100.00
56944;BME280;42848;42.524;12.052;2022-07-23T03:26:06;96885.25;;;25.37;100.00
56944;BME280;42848;42.524;12.052;2022-07-23T03:28:32;96878.13;;;25.33;100.00
56944;BME280;42848;42.524;12.052;2022-07-23T03:30:58;96880.03;;;25.43;100.00
56944;BME280;42848;42.524;12.052;2022-07-23T03:33:23;96887.31;;;25.30;100.00
56944;BME280;42848;42.524;12.052;2022-07-23T03:35:50;96883.38;;;25.27;100.00
56944;BME280;42848;42.524;12.052;2022-07-23T03:38:16;96890.31;;;25.08;100.00
56944;BME280;42848;42.524;12.052;2022-07-23T03:40:42;96890.13;;;24.78;100.00
56944;BME280;42848;42.524;12.052;2022-07-23T03:43:07;96885.44;;;24.67;100.00
56944;BME280;42848;42.524;12.052;2022-07-23T03:45:33;96890.13;;;24.78;100.00
56944;BME280;42848;42.524;12.052;2022-07-23T03:47:59;96883.88;;;24.66;100.00
56944;BME280;42848;42.524;12.052;2022-07-23T03:50:25;96889.75;;;24.76;100.00
56944;BME280;42848;42.524;12.052;2022-07-23T03:52:51;96886.19;;;24.79;100.00
56944;BME280;42848;42.524;12.052;2022-07-23T03:55:17;96895.16;;;24.97;100.00
56944;BME280;42848;42.524;12.052;2022-07-23T03:57:43;96903.63;;;24.76;100.00
56944;BME280;42848;42.524;12.052;2022-07-23T04:00:10;96903.34;;;24.63;100.00
56944;BME280;42848;42.524;12.052;2022-07-23T04:02:37;96896.22;;;24.58;100.00
56944;BME280;42848;42.524;12.052;2022-07-23T04:05:03;96898.47;;;24.11;100.00
56944;BME280;42848;42.524;12.052;2022-07-23T04:07:29;96900.19;;;23.88;100.00
56944;BME280;42848;42.524;12.052;2022-07-23T04:09:55;96900.41;;;24.25;100.00
56944;BME280;42848;42.524;12.052;2022-07-23T04:12:21;96899.81;;;24.55;100.00
56944;BME280;42848;42.524;12.052;2022-07-23T04:14:47;96907.28;;;24.69;100.00
56944;BME280;42848;42.524;12.052;2022-07-23T04:17:13;96895.19;;;24.31;100.00
56944;BME280;42848;42.524;12.052;2022-07-23T04:19:39;96895.34;;;24.68;100.00
56944;BME280;42848;42.524;12.052;2022-07-23T04:22:10;96904.88;;;24.67;100.00
56944;BME280;42848;42.524;12.052;2022-07-23T04:24:37;96911.22;;;24.72;100.00
56944;BME280;42848;42.524;12.052;2022-07-23T04:27:03;96905.94;;;24.84;100.00
56944;BME280;42848;42.524;12.052;2022-07-23T04:29:29;96908.47;;;24.64;100.00
56944;BME280;42848;42.524;12.052;2022-07-23T04:31:55;96901.72;;;24.69;100.00
56944;BME280;42848;42.524;12.052;2022-07-23T04:34:21;96907.28;;;24.69;100.00
56944;BME280;42848;42.524;12.052;2022-07-23T04:36:47;96899.44;;;24.53;100.00
56944;BME280;42848;42.524;12.052;2022-07-23T04:39:13;96892.53;;;24.76;100.00
56944;BME280;42848;42.524;12.052;2022-07-23T04:41:38;96890.06;;;24.85;100.00
56944;BME280;42848;42.524;12.052;2022-07-23T04:44:04;96891.78;;;24.68;100.00
56944;BME280;42848;42.524;12.052;2022-07-23T04:46:30;96901.41;;;24.56;100.00
56944;BME280;42848;42.524;12.052;2022-07-23T04:48:56;96899.03;;;24.55;100.00
56944;BME280;42848;42.524;12.052;2022-07-23T04:51:21;96902.31;;;24.39;100.00
56944;BME280;42848;42.524;12.052;2022-07-23T04:53:47;96901.19;;;24.85;100.00
56944;BME280;42848;42.524;12.052;2022-07-23T04:56:12;96895.22;;;24.86;100.00
56944;BME280;42848;42.524;12.052;2022-07-23T04:58:38;96901.13;;;24.92;100.00
56944;BME280;42848;42.524;12.052;2022-07-23T05:01:04;96897.28;;;24.79;100.00
56944;BME280;42848;42.524;12.052;2022-07-23T05:03:30;96906.41;;;24.76;100.00
56944;BME280;42848;42.524;12.052;2022-07-23T05:05:55;96915.47;;;24.83;100.00
56944;BME280;42848;42.524;12.052;2022-07-23T05:08:21;96912.25;;;24.92;100.00
56944;BME280;42848;42.524;12.052;2022-07-23T05:10:47;96913.34;;;25.02;100.00
56944;BME280;42848;42.524;12.052;2022-07-23T05:13:16;96914.41;;;24.70;100.00
56944;BME280;42848;42.524;12.052;2022-07-23T05:15:43;96911.81;;;24.97;100.00
56944;BME280;42848;42.524;12.052;2022-07-23T05:18:09;96908.97;;;25.04;100.00
56944;BME280;42848;42.524;12.052;2022-07-23T05:20:35;96912.28;;;24.88;100.00
56944;BME280;42848;42.524;12.052;2022-07-23T05:23:01;96920.72;;;25.22;100.00
56944;BME280;42848;42.524;12.052;2022-07-23T05:25:27;96917.94;;;25.22;100.00
56944;BME280;42848;42.524;12.052;2022-07-23T05:27:52;96916.44;;;25.14;100.00
56944;BME280;42848;42.524;12.052;2022-07-23T05:30:18;96920.41;;;25.13;100.00
56944;BME280;42848;42.524;12.052;2022-07-23T05:32:44;96931.03;;;25.26;100.00
56944;BME280;42848;42.524;12.052;2022-07-23T05:35:10;96922.09;;;25.45;100.00
56944;BME280;42848;42.524;12.052;2022-07-23T05:37:36;96929.91;;;25.57;100.00
56944;BME280;42848;42.524;12.052;2022-07-23T05:40:03;96931.53;;;25.55;100.00
56944;BME280;42848;42.524;12.052;2022-07-23T05:42:31;96924.41;;;25.50;100.00
56944;BME280;42848;42.524;12.052;2022-07-23T05:44:57;96929.31;;;25.39;100.00
56944;BME280;42848;42.524;12.052;2022-07-23T05:47:23;96930.56;;;25.68;100.00
56944;BME280;42848;42.524;12.052;2022-07-23T05:49:49;96929.91;;;25.57;100.00
56944;BME280;42848;42.524;12.052;2022-07-23T05:52:14;96934.88;;;25.76;100.00
56944;BME280;42848;42.524;12.052;2022-07-23T05:54:40;96935.34;;;25.71;100.00
56944;BME280;42848;42.524;12.052;2022-07-23T05:57:06;96935.59;;;25.84;100.00
56944;BME280;42848;42.524;12.052;2022-07-23T05:59:32;96931.97;;;25.87;100.00
56944;BME280;42848;42.524;12.052;2022-07-23T06:01:58;96925.09;;;25.99;100.00
56944;BME280;42848;42.524;12.052;2022-07-23T06:04:23;96936.97;;;26.03;100.00
56944;BME280;42848;42.524;12.052;2022-07-23T06:06:49;96947.34;;;25.99;100.00
56944;BME280;42848;42.524;12.052;2022-07-23T06:09:15;96938.94;;;26.06;100.00
56944;BME280;42848;42.524;12.052;2022-07-23T06:11:41;96935.31;;;26.09;100.00
56944;BME280;42848;42.524;12.052;2022-07-23T06:14:06;96939.59;;;26.14;100.00
56944;BME280;42848;42.524;12.052;2022-07-23T06:16:32;96937.94;;;26.20;100.00
56944;BME280;42848;42.524;12.052;2022-07-23T06:18:58;96944.38;;;26.13;100.00
56944;BME280;42848;42.524;12.052;2022-07-23T06:21:23;96946.47;;;26.36;100.00
56944;BME280;42848;42.524;12.052;2022-07-23T06:23:49;96941.88;;;26.22;100.00
56944;BME280;42848;42.524;12.052;2022-07-23T06:26:15;96949.69;;;26.34;100.00
56944;BME280;42848;42.524;12.052;2022-07-23T06:28:40;96952.00;;;26.40;100.00
56944;BME280;42848;42.524;12.052;2022-07-23T06:31:06;96958.38;;;26.40;100.00
56944;BME280;42848;42.524;12.052;2022-07-23T06:33:31;96951.19;;;26.43;100.00
56944;BME280;42848;42.524;12.052;2022-07-23T06:35:57;96949.31;;;26.63;100.00
56944;BME280;42848;42.524;12.052;2022-07-23T06:38:23;96947.75;;;26.62;100.00
56944;BME280;42848;42.524;12.052;2022-07-23T06:40:48;96953.41;;;26.55;100.00
56944;BME280;42848;42.524;12.052;2022-07-23T06:43:14;96955.56;;;26.71;100.00
56944;BME280;42848;42.524;12.052;2022-07-23T06:45:40;96948.41;;;26.70;100.00
56944;BME280;42848;42.524;12.052;2022-07-23T06:48:05;96950.03;;;26.67;100.00
56944;BME280;42848;42.524;12.052;2022-07-23T06:50:31;96945.84;;;26.82;100.00
56944;BME280;42848;42.524;12.052;2022-07-23T06:52:57;96951.31;;;26.89;100.00
56944;BME280;42848;42.524;12.052;2022-07-23T06:55:22;96952.78;;;26.98;99.28
56944;BME280;42848;42.524;12.052;2022-07-23T06:57:48;96952.03;;;26.93;100.00
56944;BME280;42848;42.524;12.052;2022-07-23T07:00:14;96958.38;;;26.94;100.00
56944;BME280;42848;42.524;12.052;2022-07-23T07:02:40;96957.03;;;27.06;100.00
56944;BME280;42848;42.524;12.052;2022-07-23T07:05:06;96953.88;;;27.04;100.00
56944;BME280;42848;42.524;12.052;2022-07-23T07:07:33;96951.22;;;27.20;100.00
56944;BME280;42848;42.524;12.052;2022-07-23T07:09:58;96958.88;;;27.16;99.90
56944;BME280;42848;42.524;12.052;2022-07-23T07:12:24;96954.00;;;27.20;100.00
56944;BME280;42848;42.524;12.052;2022-07-23T07:14:49;96950.69;;;27.29;99.68
56944;BME280;42848;42.524;12.052;2022-07-23T07:17:15;96947.63;;;27.43;100.00
56944;BME280;42848;42.524;12.052;2022-07-23T07:19:41;96949.59;;;27.46;97.29
56944;BME280;42848;42.524;12.052;2022-07-23T07:22:07;96946.94;;;27.59;98.27
56944;BME280;42848;42.524;12.052;2022-07-23T07:24:32;96948.09;;;27.18;99.58
56944;BME280;42848;42.524;12.052;2022-07-23T07:26:58;96951.72;;;27.38;97.22
56944;BME280;42848;42.524;12.052;2022-07-23T07:29:24;96953.50;;;27.48;93.09
56944;BME280;42848;42.524;12.052;2022-07-23T07:31:49;96957.41;;;27.55;92.80
56944;BME280;42848;42.524;12.052;2022-07-23T07:34:15;96948.16;;;27.58;94.75
56944;BME280;42848;42.524;12.052;2022-07-23T07:36:41;96946.91;;;27.62;93.35
56944;BME280;42848;42.524;12.052;2022-07-23T07:39:08;96950.97;;;27.58;90.71
56944;BME280;42848;42.524;12.052;2022-07-23T07:41:36;96948.28;;;27.74;91.46
56944;BME280;42848;42.524;12.052;2022-07-23T07:44:01;96946.44;;;27.87;88.15
56944;BME280;42848;42.524;12.052;2022-07-23T07:46:27;96949.66;;;28.05;87.97
56944;BME280;42848;42.524;12.052;2022-07-23T07:48:53;96958.81;;;27.86;86.73
56944;BME280;42848;42.524;12.052;2022-07-23T07:51:19;96954.97;;;27.80;88.90
56944;BME280;42848;42.524;12.052;2022-07-23T07:53:45;96947.38;;;28.00;86.15
56944;BME280;42848;42.524;12.052;2022-07-23T07:56:10;96959.38;;;27.97;84.71
56944;BME280;42848;42.524;12.052;2022-07-23T07:58:36;96940.50;;;27.85;86.44
56944;BME280;42848;42.524;12.052;2022-07-23T08:01:02;96949.59;;;27.89;83.68
56944;BME280;42848;42.524;12.052;2022-07-23T08:03:28;96949.16;;;28.11;81.28
56944;BME280;42848;42.524;12.052;2022-07-23T08:05:54;96945.50;;;28.53;81.25
56944;BME280;42848;42.524;12.052;2022-07-23T08:08:19;96956.00;;;28.66;76.49
56944;BME280;42848;42.524;12.052;2022-07-23T08:10:45;96954.16;;;28.39;77.37
56944;BME280;42848;42.524;12.052;2022-07-23T08:13:15;96956.38;;;28.28;76.66
56944;BME280;42848;42.524;12.052;2022-07-23T08:15:41;96951.25;;;28.26;72.47
56944;BME280;42848;42.524;12.052;2022-07-23T08:18:08;96944.28;;;28.34;73.60
56944;BME280;42848;42.524;12.052;2022-07-23T08:20:34;96950.94;;;28.41;71.06
56944;BME280;42848;42.524;12.052;2022-07-23T08:23:04;96947.88;;;28.87;65.15
56944;BME280;42848;42.524;12.052;2022-07-23T08:25:35;96950.78;;;28.84;64.93
56944;BME280;42848;42.524;12.052;2022-07-23T08:28:02;96950.41;;;28.66;64.14
56944;BME280;42848;42.524;12.052;2022-07-23T08:30:29;96951.09;;;28.70;64.55
56944;BME280;42848;42.524;12.052;2022-07-23T08:32:58;96951.16;;;29.02;67.28
56944;BME280;42848;42.524;12.052;2022-07-23T08:35:34;96954.47;;;29.30;65.96
56944;BME280;42848;42.524;12.052;2022-07-23T08:38:03;96961.38;;;29.58;63.06
56944;BME280;42848;42.524;12.052;2022-07-23T08:40:31;96959.00;;;29.40;61.71
56944;BME280;42848;42.524;12.052;2022-07-23T08:42:57;96959.69;;;29.60;61.78
56944;BME280;42848;42.524;12.052;2022-07-23T08:45:24;96957.09;;;29.37;60.88
56944;BME280;42848;42.524;12.052;2022-07-23T08:47:52;96949.06;;;29.06;59.91
56944;BME280;42848;42.524;12.052;2022-07-23T08:50:19;96953.06;;;29.05;58.63
56944;BME280;42848;42.524;12.052;2022-07-23T08:52:45;96953.34;;;29.11;58.12
56944;BME280;42848;42.524;12.052;2022-07-23T08:55:11;96952.84;;;29.00;58.58
56944;BME280;42848;42.524;12.052;2022-07-23T08:57:37;96953.41;;;29.24;58.43
56944;BME280;42848;42.524;12.052;2022-07-23T09:00:05;96952.03;;;28.99;59.38
56944;BME280;42848;42.524;12.052;2022-07-23T09:02:38;96959.28;;;29.29;59.34
56944;BME280;42848;42.524;12.052;2022-07-23T09:05:05;96959.53;;;29.51;57.58
56944;BME280;42848;42.524;12.052;2022-07-23T09:07:32;96956.22;;;29.40;56.12
56944;BME280;42848;42.524;12.052;2022-07-23T09:10:10;96958.22;;;29.39;56.75
56944;BME280;42848;42.524;12.052;2022-07-23T09:12:37;96954.81;;;29.48;54.91
56944;BME280;42848;42.524;12.052;2022-07-23T09:15:12;96971.50;;;29.52;56.06
56944;BME280;42848;42.524;12.052;2022-07-23T09:17:40;96960.50;;;29.44;55.31
56944;BME280;42848;42.524;12.052;2022-07-23T09:20:14;96965.63;;;29.62;53.99
56944;BME280;42848;42.524;12.052;2022-07-23T09:22:44;96958.41;;;29.94;52.35
56944;BME280;42848;42.524;12.052;2022-07-23T09:25:15;96954.75;;;29.81;50.89
56944;BME280;42848;42.524;12.052;2022-07-23T09:27:47;96960.22;;;30.29;49.55
56944;BME280;42848;42.524;12.052;2022-07-23T09:30:13;96963.25;;;30.06;49.18
56944;BME280;42848;42.524;12.052;2022-07-23T09:32:39;96965.13;;;29.96;46.46
56944;BME280;42848;42.524;12.052;2022-07-23T09:35:06;96959.47;;;29.84;43.74
56944;BME280;42848;42.524;12.052;2022-07-23T09:37:32;96961.44;;;29.99;46.23
56944;BME280;42848;42.524;12.052;2022-07-23T09:40:09;96957.41;;;30.29;46.67
56944;BME280;42848;42.524;12.052;2022-07-23T09:42:37;96962.31;;;29.96;47.03
56944;BME280;42848;42.524;12.052;2022-07-23T09:45:03;96966.00;;;30.22;45.34
56944;BME280;42848;42.524;12.052;2022-07-23T09:47:31;96968.03;;;30.22;45.14
56944;BME280;42848;42.524;12.052;2022-07-23T09:49:59;96957.41;;;30.29;46.36
56944;BME280;42848;42.524;12.052;2022-07-23T09:52:32;96965.63;;;30.49;45.32
56944;BME280;42848;42.524;12.052;2022-07-23T09:55:00;96973.31;;;30.87;45.58
56944;BME280;42848;42.524;12.052;2022-07-23T09:57:27;96969.22;;;30.63;40.37
56944;BME280;42848;42.524;12.052;2022-07-23T09:59:57;96971.47;;;30.55;37.71
56944;BME280;42848;42.524;12.052;2022-07-23T10:02:24;96972.28;;;30.68;38.93
56944;BME280;42848;42.524;12.052;2022-07-23T10:04:53;96965.56;;;30.66;42.93
56944;BME280;42848;42.524;12.052;2022-07-23T10:07:21;96967.97;;;30.51;39.57
56944;BME280;42848;42.524;12.052;2022-07-23T10:09:50;96970.00;;;30.63;37.44
56944;BME280;42848;42.524;12.052;2022-07-23T10:12:19;96964.53;;;30.72;40.47
56944;BME280;42848;42.524;12.052;2022-07-23T10:14:53;96965.22;;;31.02;45.05
56944;BME280;42848;42.524;12.052;2022-07-23T10:17:18;96970.16;;;31.23;42.46
56944;BME280;42848;42.524;12.052;2022-07-23T10:19:44;96969.28;;;31.01;36.64
56944;BME280;42848;42.524;12.052;2022-07-23T10:22:21;96965.69;;;31.00;33.99
56944;BME280;42848;42.524;12.052;2022-07-23T10:28:29;96961.38;;;31.47;34.10
56944;BME280;42848;42.524;12.052;2022-07-23T10:31:06;96964.53;;;30.98;33.35
56944;BME280;42848;42.524;12.052;2022-07-23T10:36:49;96957.47;;;31.06;39.32
56944;BME280;42848;42.524;12.052;2022-07-23T10:41:48;96965.00;;;32.04;35.98
56944;BME280;42848;42.524;12.052;2022-07-23T10:44:19;96959.00;;;31.58;35.96
56944;BME280;42848;42.524;12.052;2022-07-23T10:47:03;96960.59;;;31.46;39.26
56944;BME280;42848;42.524;12.052;2022-07-23T10:49:31;96957.94;;;31.30;40.46
56944;BME280;42848;42.524;12.052;2022-07-23T10:52:26;96953.44;;;31.20;41.29
56944;BME280;42848;42.524;12.052;2022-07-23T10:54:53;96957.19;;;31.51;41.58
56944;BME280;42848;42.524;12.052;2022-07-23T10:57:22;96946.91;;;32.05;42.25
56944;BME280;42848;42.524;12.052;2022-07-23T11:02:38;96953.22;;;31.74;47.65
56944;BME280;42848;42.524;12.052;2022-07-23T11:05:06;96946.66;;;31.42;52.52
56944;BME280;42848;42.524;12.052;2022-07-23T11:07:32;96947.13;;;31.41;55.97
56944;BME280;42848;42.524;12.052;2022-07-23T11:09:58;96943.56;;;31.62;55.39
56944;BME280;42848;42.524;12.052;2022-07-23T11:15:06;96942.88;;;32.06;49.81
56944;BME280;42848;42.524;12.052;2022-07-23T11:20:22;96932.31;;;32.10;46.44
56944;BME280;42848;42.524;12.052;2022-07-23T11:22:51;96940.16;;;31.80;45.40
56944;BME280;42848;42.524;12.052;2022-07-23T11:27:50;96937.72;;;31.82;47.28
56944;BME280;42848;42.524;12.052;2022-07-23T11:32:51;96926.84;;;32.15;44.10
56944;BME280;42848;42.524;12.052;2022-07-23T11:35:21;96931.94;;;32.30;42.79
56944;BME280;42848;42.524;12.052;2022-07-23T11:37:48;96930.44;;;32.16;42.47
56944;BME280;42848;42.524;12.052;2022-07-23T11:40:16;96924.72;;;31.97;41.07
56944;BME280;42848;42.524;12.052;2022-07-23T11:42:55;96919.03;;;32.32;42.57
56944;BME280;42848;42.524;12.052;2022-07-23T11:45:23;96926.03;;;32.59;41.54
56944;BME280;42848;42.524;12.052;2022-07-23T11:47:49;96918.75;;;32.70;37.36
56944;BME280;42848;42.524;12.052;2022-07-23T11:50:15;96907.72;;;32.54;40.06
56944;BME280;42848;42.524;12.052;2022-07-23T11:52:42;96905.00;;;32.72;40.87
56944;BME280;42848;42.524;12.052;2022-07-23T11:55:09;96906.88;;;32.35;41.29
56944;BME280;42848;42.524;12.052;2022-07-23T11:57:39;96912.81;;;32.68;39.72
56944;BME280;42848;42.524;12.052;2022-07-23T12:00:14;96907.69;;;32.45;44.92
56944;BME280;42848;42.524;12.052;2022-07-23T12:02:42;96899.72;;;32.43;46.63
56944;BME280;42848;42.524;12.052;2022-07-23T12:05:15;96903.31;;;32.75;43.87
56944;BME280;42848;42.524;12.052;2022-07-23T12:07:43;96904.66;;;32.92;43.56
56944;BME280;42848;42.524;12.052;2022-07-23T12:10:22;96900.94;;;33.04;52.96
56944;BME280;42848;42.524;12.052;2022-07-23T12:12:51;96902.19;;;33.03;41.84
56944;BME280;42848;42.524;12.052;2022-07-23T12:15:26;96904.22;;;32.72;45.93
56944;BME280;42848;42.524;12.052;2022-07-23T12:17:53;96898.00;;;32.77;45.76
56944;BME280;42848;42.524;12.052;2022-07-23T12:20:24;96899.06;;;33.10;40.33
56944;BME280;42848;42.524;12.052;2022-07-23T12:22:56;96900.47;;;33.06;40.22
56944;BME280;42848;42.524;12.052;2022-07-23T12:25:25;96898.88;;;32.96;36.56
56944;BME280;42848;42.524;12.052;2022-07-23T12:28:04;96893.44;;;33.01;41.25
56944;BME280;42848;42.524;12.052;2022-07-23T12:30:34;96893.75;;;32.72;43.53
56944;BME280;42848;42.524;12.052;2022-07-23T12:33:00;96907.91;;;33.49;39.34
56944;BME280;42848;42.524;12.052;2022-07-23T12:35:35;96892.19;;;33.12;38.08
56944;BME280;42848;42.524;12.052;2022-07-23T12:38:05;96894.44;;;33.53;39.18
56944;BME280;42848;42.524;12.052;2022-07-23T12:40:48;96908.47;;;33.26;37.55
56944;BME280;42848;42.524;12.052;2022-07-23T12:43:23;96896.41;;;33.16;39.65
56944;BME280;42848;42.524;12.052;2022-07-23T12:45:52;96891.59;;;33.35;40.07
56944;BME280;42848;42.524;12.052;2022-07-23T12:50:55;96897.25;;;33.99;37.19
56944;BME280;42848;42.524;12.052;2022-07-23T12:53:26;96895.69;;;33.80;35.65
56944;BME280;42848;42.524;12.052;2022-07-23T12:56:09;96902.75;;;33.84;34.14
56944;BME280;42848;42.524;12.052;2022-07-23T12:58:43;96907.91;;;33.67;32.75
56944;BME280;42848;42.524;12.052;2022-07-23T13:06:37;96896.34;;;34.02;33.43
56944;BME280;42848;42.524;12.052;2022-07-23T13:09:06;96907.91;;;33.58;33.80
56944;BME280;42848;42.524;12.052;2022-07-23T13:11:33;96899.78;;;33.79;32.06
56944;BME280;42848;42.524;12.052;2022-07-23T13:13:59;96903.38;;;33.79;32.93
56944;BME280;42848;42.524;12.052;2022-07-23T13:16:29;96892.88;;;33.98;33.52